sensor_id;sensor_type;location;lat;lon;timestamp;P1;durP1;ratioP1;P2;durP2;ratioP2
36247;SDS011;22287;50.824;5.644;2023-03-11T00:01:43;6.65;;;1.23;;
36247;SDS011;22287;50.824;5.644;2023-03-11T00:04:09;4.97;;;0.83;;
36247;SDS011;22287;50.824;5.644;2023-03-11T00:06:37;6.68;;;1.25;;
36247;SDS011;22287;50.824;5.644;2023-03-11T00:09:03;6.37;;;1.00;;
36247;SDS011;22287;50.824;5.644;2023-03-11T00:11:31;2.40;;;0.80;;
36247;SDS011;22287;50.824;5.644;2023-03-11T00:13:58;5.97;;;1.07;;
36247;SDS011;22287;50.824;5.644;2023-03-11T00:16:25;7.97;;;0.97;;
36247;SDS011;22287;50.824;5.644;2023-03-11T00:18:52;4.87;;;1.23;;
36247;SDS011;22287;50.824;5.644;2023-03-11T00:21:18;6.47;;;1.20;;
36247;SDS011;22287;50.824;5.644;2023-03-11T00:23:46;3.35;;;1.30;;
36247;SDS011;22287;50.824;5.644;2023-03-11T00:26:13;8.77;;;1.83;;
36247;SDS011;22287;50.824;5.644;2023-03-11T00:28:39;6.70;;;1.50;;
36247;SDS011;22287;50.824;5.644;2023-03-11T00:31:09;5.93;;;1.47;;
36247;SDS011;22287;50.824;5.644;2023-03-11T00:33:38;6.43;;;1.50;;
36247;SDS011;22287;50.824;5.644;2023-03-11T00:36:05;4.30;;;1.90;;
36247;SDS011;22287;50.824;5.644;2023-03-11T00:38:32;3.03;;;1.47;;
36247;SDS011;22287;50.824;5.644;2023-03-11T00:40:59;3.90;;;1.60;;
36247;SDS011;22287;50.824;5.644;2023-03-11T00:43:29;4.05;;;1.38;;
36247;SDS011;22287;50.824;5.644;2023-03-11T00:45:56;5.43;;;1.70;;
36247;SDS011;22287;50.824;5.644;2023-03-11T00:48:23;6.53;;;2.23;;
36247;SDS011;22287;50.824;5.644;2023-03-11T00:50:50;6.43;;;1.53;;
36247;SDS011;22287;50.824;5.644;2023-03-11T00:53:17;3.10;;;1.50;;
36247;SDS011;22287;50.824;5.644;2023-03-11T00:55:44;5.37;;;1.63;;
36247;SDS011;22287;50.824;5.644;2023-03-11T00:58:11;7.80;;;1.13;;
36247;SDS011;22287;50.824;5.644;2023-03-11T01:03:09;7.37;;;2.00;;
36247;SDS011;22287;50.824;5.644;2023-03-11T01:05:36;8.30;;;1.80;;
36247;SDS011;22287;50.824;5.644;2023-03-11T01:08:03;5.43;;;1.53;;
36247;SDS011;22287;50.824;5.644;2023-03-11T01:10:30;7.80;;;2.07;;
36247;SDS011;22287;50.824;5.644;2023-03-11T01:15:32;6.93;;;1.70;;
36247;SDS011;22287;50.824;5.644;2023-03-11T01:18:02;3.43;;;1.40;;
36247;SDS011;22287;50.824;5.644;2023-03-11T01:20:31;5.00;;;1.63;;
36247;SDS011;22287;50.824;5.644;2023-03-11T01:22:58;4.70;;;1.53;;
36247;SDS011;22287;50.824;5.644;2023-03-11T01:25:26;6.40;;;1.70;;
36247;SDS011;22287;50.824;5.644;2023-03-11T01:27:56;3.93;;;1.50;;
36247;SDS011;22287;50.824;5.644;2023-03-11T01:30:23;6.03;;;1.60;;
36247;SDS011;22287;50.824;5.644;2023-03-11T01:32:52;7.73;;;1.60;;
36247;SDS011;22287;50.824;5.644;2023-03-11T01:35:20;5.60;;;1.67;;
36247;SDS011;22287;50.824;5.644;2023-03-11T01:37:48;7.23;;;2.03;;
36247;SDS011;22287;50.824;5.644;2023-03-11T01:40:37;7.30;;;1.77;;
36247;SDS011;22287;50.824;5.644;2023-03-11T01:46:20;6.10;;;1.77;;
36247;SDS011;22287;50.824;5.644;2023-03-11T01:48:57;10.90;;;2.40;;
36247;SDS011;22287;50.824;5.644;2023-03-11T01:54:07;5.60;;;1.60;;
36247;SDS011;22287;50.824;5.644;2023-03-11T01:56:38;4.53;;;1.47;;
36247;SDS011;22287;50.824;5.644;2023-03-11T01:59:07;4.10;;;2.23;;
36247;SDS011;22287;50.824;5.644;2023-03-11T02:01:37;2.97;;;1.77;;
36247;SDS011;22287;50.824;5.644;2023-03-11T02:04:14;10.60;;;1.97;;
36247;SDS011;22287;50.824;5.644;2023-03-11T02:06:41;4.57;;;1.43;;
36247;SDS011;22287;50.824;5.644;2023-03-11T02:09:08;6.37;;;1.80;;
36247;SDS011;22287;50.824;5.644;2023-03-11T02:11:35;5.20;;;1.63;;
36247;SDS011;22287;50.824;5.644;2023-03-11T02:14:03;7.87;;;1.50;;
36247;SDS011;22287;50.824;5.644;2023-03-11T02:16:33;5.97;;;1.40;;
36247;SDS011;22287;50.824;5.644;2023-03-11T02:19:03;4.90;;;1.43;;
36247;SDS011;22287;50.824;5.644;2023-03-11T02:22:11;4.33;;;1.47;;
36247;SDS011;22287;50.824;5.644;2023-03-11T02:24:58;4.63;;;1.90;;
36247;SDS011;22287;50.824;5.644;2023-03-11T02:27:27;5.10;;;1.70;;
36247;SDS011;22287;50.824;5.644;2023-03-11T02:29:59;6.53;;;1.77;;
36247;SDS011;22287;50.824;5.644;2023-03-11T02:32:32;4.63;;;1.97;;
36247;SDS011;22287;50.824;5.644;2023-03-11T02:35:00;4.13;;;1.63;;
36247;SDS011;22287;50.824;5.644;2023-03-11T02:37:27;4.47;;;2.30;;
36247;SDS011;22287;50.824;5.644;2023-03-11T02:42:46;6.10;;;1.90;;
36247;SDS011;22287;50.824;5.644;2023-03-11T02:45:15;8.10;;;2.00;;
36247;SDS011;22287;50.824;5.644;2023-03-11T02:47:46;6.13;;;1.85;;
36247;SDS011;22287;50.824;5.644;2023-03-11T02:50:14;8.60;;;2.40;;
36247;SDS011;22287;50.824;5.644;2023-03-11T02:52:43;4.50;;;1.80;;
36247;SDS011;22287;50.824;5.644;2023-03-11T02:55:10;5.83;;;1.90;;
36247;SDS011;22287;50.824;5.644;2023-03-11T02:57:38;4.90;;;1.70;;
36247;SDS011;22287;50.824;5.644;2023-03-11T03:00:05;7.93;;;2.03;;
36247;SDS011;22287;50.824;5.644;2023-03-11T03:02:41;5.53;;;1.83;;
36247;SDS011;22287;50.824;5.644;2023-03-11T03:05:09;5.57;;;1.50;;
36247;SDS011;22287;50.824;5.644;2023-03-11T03:07:37;5.57;;;2.03;;
36247;SDS011;22287;50.824;5.644;2023-03-11T03:10:04;6.33;;;2.00;;
36247;SDS011;22287;50.824;5.644;2023-03-11T03:12:34;8.80;;;2.10;;
36247;SDS011;22287;50.824;5.644;2023-03-11T03:15:01;9.93;;;1.90;;
36247;SDS011;22287;50.824;5.644;2023-03-11T03:17:28;3.27;;;1.70;;
36247;SDS011;22287;50.824;5.644;2023-03-11T03:19:55;4.43;;;2.20;;
36247;SDS011;22287;50.824;5.644;2023-03-11T03:22:21;5.60;;;1.70;;
36247;SDS011;22287;50.824;5.644;2023-03-11T03:24:53;4.70;;;1.77;;
36247;SDS011;22287;50.824;5.644;2023-03-11T03:27:20;5.03;;;1.93;;
36247;SDS011;22287;50.824;5.644;2023-03-11T03:29:46;7.00;;;1.60;;
36247;SDS011;22287;50.824;5.644;2023-03-11T03:32:14;7.43;;;1.50;;
36247;SDS011;22287;50.824;5.644;2023-03-11T03:34:41;5.97;;;1.67;;
36247;SDS011;22287;50.824;5.644;2023-03-11T03:37:08;6.47;;;1.73;;
36247;SDS011;22287;50.824;5.644;2023-03-11T03:39:34;5.13;;;1.90;;
36247;SDS011;22287;50.824;5.644;2023-03-11T03:42:01;8.23;;;2.20;;
36247;SDS011;22287;50.824;5.644;2023-03-11T03:44:31;5.13;;;1.73;;
36247;SDS011;22287;50.824;5.644;2023-03-11T03:46:59;2.73;;;1.37;;
36247;SDS011;22287;50.824;5.644;2023-03-11T03:49:26;5.57;;;1.77;;
36247;SDS011;22287;50.824;5.644;2023-03-11T03:51:53;4.93;;;1.73;;
36247;SDS011;22287;50.824;5.644;2023-03-11T03:54:29;5.03;;;1.60;;
36247;SDS011;22287;50.824;5.644;2023-03-11T03:56:56;3.67;;;1.70;;
36247;SDS011;22287;50.824;5.644;2023-03-11T03:59:23;7.00;;;1.90;;
36247;SDS011;22287;50.824;5.644;2023-03-11T04:01:53;6.97;;;1.95;;
36247;SDS011;22287;50.824;5.644;2023-03-11T04:04:22;1.77;;;1.30;;
36247;SDS011;22287;50.824;5.644;2023-03-11T04:06:49;8.13;;;2.17;;
36247;SDS011;22287;50.824;5.644;2023-03-11T04:09:17;4.53;;;1.67;;
36247;SDS011;22287;50.824;5.644;2023-03-11T04:11:44;4.73;;;1.77;;
36247;SDS011;22287;50.824;5.644;2023-03-11T04:14:13;5.03;;;1.63;;
36247;SDS011;22287;50.824;5.644;2023-03-11T04:16:47;8.70;;;3.13;;
36247;SDS011;22287;50.824;5.644;2023-03-11T04:19:14;3.07;;;1.80;;
36247;SDS011;22287;50.824;5.644;2023-03-11T04:21:41;5.13;;;1.90;;
36247;SDS011;22287;50.824;5.644;2023-03-11T04:24:09;6.00;;;1.57;;
36247;SDS011;22287;50.824;5.644;2023-03-11T04:26:37;4.63;;;1.80;;
36247;SDS011;22287;50.824;5.644;2023-03-11T04:29:08;3.58;;;1.80;;
36247;SDS011;22287;50.824;5.644;2023-03-11T04:31:40;3.63;;;1.67;;
36247;SDS011;22287;50.824;5.644;2023-03-11T04:34:07;8.67;;;1.57;;
36247;SDS011;22287;50.824;5.644;2023-03-11T04:36:36;3.53;;;1.60;;
36247;SDS011;22287;50.824;5.644;2023-03-11T04:39:03;2.90;;;1.40;;
36247;SDS011;22287;50.824;5.644;2023-03-11T04:41:35;4.27;;;1.57;;
36247;SDS011;22287;50.824;5.644;2023-03-11T04:44:04;3.93;;;1.77;;
36247;SDS011;22287;50.824;5.644;2023-03-11T04:46:31;3.27;;;1.53;;
36247;SDS011;22287;50.824;5.644;2023-03-11T04:48:59;4.60;;;1.50;;
36247;SDS011;22287;50.824;5.644;2023-03-11T04:51:26;2.97;;;1.10;;
36247;SDS011;22287;50.824;5.644;2023-03-11T04:53:53;1.93;;;1.20;;
36247;SDS011;22287;50.824;5.644;2023-03-11T04:56:20;5.53;;;1.93;;
36247;SDS011;22287;50.824;5.644;2023-03-11T04:58:48;3.73;;;1.43;;
36247;SDS011;22287;50.824;5.644;2023-03-11T05:01:15;7.33;;;1.60;;
36247;SDS011;22287;50.824;5.644;2023-03-11T05:03:42;2.57;;;1.40;;
36247;SDS011;22287;50.824;5.644;2023-03-11T05:06:09;5.00;;;2.27;;
36247;SDS011;22287;50.824;5.644;2023-03-11T05:08:36;3.47;;;2.20;;
36247;SDS011;22287;50.824;5.644;2023-03-11T05:11:03;4.77;;;1.50;;
36247;SDS011;22287;50.824;5.644;2023-03-11T05:13:30;5.30;;;2.23;;
36247;SDS011;22287;50.824;5.644;2023-03-11T05:15:57;4.63;;;1.47;;
36247;SDS011;22287;50.824;5.644;2023-03-11T05:18:24;5.40;;;1.53;;
36247;SDS011;22287;50.824;5.644;2023-03-11T05:20:51;3.23;;;2.00;;
36247;SDS011;22287;50.824;5.644;2023-03-11T05:23:22;4.57;;;1.70;;
36247;SDS011;22287;50.824;5.644;2023-03-11T05:25:50;5.17;;;1.43;;
36247;SDS011;22287;50.824;5.644;2023-03-11T05:28:17;5.10;;;1.80;;
36247;SDS011;22287;50.824;5.644;2023-03-11T05:30:48;4.93;;;1.57;;
36247;SDS011;22287;50.824;5.644;2023-03-11T05:33:16;4.40;;;2.00;;
36247;SDS011;22287;50.824;5.644;2023-03-11T05:35:44;4.53;;;1.40;;
36247;SDS011;22287;50.824;5.644;2023-03-11T05:38:12;6.57;;;1.63;;
36247;SDS011;22287;50.824;5.644;2023-03-11T05:40:38;3.53;;;1.47;;
36247;SDS011;22287;50.824;5.644;2023-03-11T05:43:06;4.67;;;1.50;;
36247;SDS011;22287;50.824;5.644;2023-03-11T05:45:36;4.18;;;2.05;;
36247;SDS011;22287;50.824;5.644;2023-03-11T05:48:04;6.30;;;1.67;;
36247;SDS011;22287;50.824;5.644;2023-03-11T05:50:32;4.93;;;2.20;;
36247;SDS011;22287;50.824;5.644;2023-03-11T05:53:00;5.60;;;1.77;;
36247;SDS011;22287;50.824;5.644;2023-03-11T05:55:28;6.80;;;2.03;;
36247;SDS011;22287;50.824;5.644;2023-03-11T05:57:55;6.33;;;1.97;;
36247;SDS011;22287;50.824;5.644;2023-03-11T06:00:23;5.23;;;1.90;;
36247;SDS011;22287;50.824;5.644;2023-03-11T06:02:51;4.20;;;1.90;;
36247;SDS011;22287;50.824;5.644;2023-03-11T06:05:18;4.67;;;1.83;;
36247;SDS011;22287;50.824;5.644;2023-03-11T06:07:47;6.67;;;1.70;;
36247;SDS011;22287;50.824;5.644;2023-03-11T06:10:14;4.00;;;1.60;;
36247;SDS011;22287;50.824;5.644;2023-03-11T06:12:41;4.70;;;1.70;;
36247;SDS011;22287;50.824;5.644;2023-03-11T06:15:26;4.60;;;2.00;;
36247;SDS011;22287;50.824;5.644;2023-03-11T06:17:54;6.80;;;1.87;;
36247;SDS011;22287;50.824;5.644;2023-03-11T06:20:21;3.97;;;2.00;;
36247;SDS011;22287;50.824;5.644;2023-03-11T06:22:49;3.60;;;1.80;;
36247;SDS011;22287;50.824;5.644;2023-03-11T06:25:19;5.63;;;2.13;;
36247;SDS011;22287;50.824;5.644;2023-03-11T06:27:49;6.37;;;2.30;;
36247;SDS011;22287;50.824;5.644;2023-03-11T06:30:19;5.20;;;2.10;;
36247;SDS011;22287;50.824;5.644;2023-03-11T06:32:59;5.93;;;2.00;;
36247;SDS011;22287;50.824;5.644;2023-03-11T06:35:26;3.53;;;2.10;;
36247;SDS011;22287;50.824;5.644;2023-03-11T06:37:53;5.83;;;2.10;;
36247;SDS011;22287;50.824;5.644;2023-03-11T06:40:20;5.27;;;2.00;;
36247;SDS011;22287;50.824;5.644;2023-03-11T06:42:47;5.03;;;2.83;;
36247;SDS011;22287;50.824;5.644;2023-03-11T06:45:14;7.33;;;2.60;;
36247;SDS011;22287;50.824;5.644;2023-03-11T06:47:42;6.57;;;2.60;;
36247;SDS011;22287;50.824;5.644;2023-03-11T06:50:10;7.17;;;2.33;;
36247;SDS011;22287;50.824;5.644;2023-03-11T06:52:36;4.13;;;2.27;;
36247;SDS011;22287;50.824;5.644;2023-03-11T06:55:05;6.53;;;2.57;;
36247;SDS011;22287;50.824;5.644;2023-03-11T06:57:33;6.23;;;2.47;;
36247;SDS011;22287;50.824;5.644;2023-03-11T07:00:03;5.73;;;2.97;;
36247;SDS011;22287;50.824;5.644;2023-03-11T07:02:34;6.90;;;2.28;;
36247;SDS011;22287;50.824;5.644;2023-03-11T07:05:01;6.43;;;2.70;;
36247;SDS011;22287;50.824;5.644;2023-03-11T07:07:28;5.43;;;2.60;;
36247;SDS011;22287;50.824;5.644;2023-03-11T07:09:55;6.57;;;2.87;;
36247;SDS011;22287;50.824;5.644;2023-03-11T07:12:23;7.27;;;3.13;;
36247;SDS011;22287;50.824;5.644;2023-03-11T07:14:57;3.80;;;2.53;;
36247;SDS011;22287;50.824;5.644;2023-03-11T07:17:24;6.53;;;3.27;;
36247;SDS011;22287;50.824;5.644;2023-03-11T07:19:52;9.87;;;4.37;;
36247;SDS011;22287;50.824;5.644;2023-03-11T07:22:19;6.27;;;3.10;;
36247;SDS011;22287;50.824;5.644;2023-03-11T07:24:47;13.83;;;3.37;;
36247;SDS011;22287;50.824;5.644;2023-03-11T07:27:14;6.57;;;3.30;;
36247;SDS011;22287;50.824;5.644;2023-03-11T07:29:41;9.17;;;3.57;;
36247;SDS011;22287;50.824;5.644;2023-03-11T07:32:08;5.43;;;3.40;;
36247;SDS011;22287;50.824;5.644;2023-03-11T07:34:35;7.03;;;3.97;;
36247;SDS011;22287;50.824;5.644;2023-03-11T07:37:02;7.47;;;3.43;;
36247;SDS011;22287;50.824;5.644;2023-03-11T07:39:29;10.43;;;3.20;;
36247;SDS011;22287;50.824;5.644;2023-03-11T07:41:56;6.80;;;2.90;;
36247;SDS011;22287;50.824;5.644;2023-03-11T07:44:32;10.43;;;4.03;;
36247;SDS011;22287;50.824;5.644;2023-03-11T07:47:00;9.13;;;3.53;;
36247;SDS011;22287;50.824;5.644;2023-03-11T07:49:32;11.03;;;3.17;;
36247;SDS011;22287;50.824;5.644;2023-03-11T07:51:59;5.40;;;3.73;;
36247;SDS011;22287;50.824;5.644;2023-03-11T07:54:26;9.33;;;3.60;;
36247;SDS011;22287;50.824;5.644;2023-03-11T07:56:53;8.17;;;4.27;;
36247;SDS011;22287;50.824;5.644;2023-03-11T07:59:19;6.77;;;3.27;;
36247;SDS011;22287;50.824;5.644;2023-03-11T08:01:46;8.17;;;4.53;;
36247;SDS011;22287;50.824;5.644;2023-03-11T08:04:13;5.80;;;3.40;;
36247;SDS011;22287;50.824;5.644;2023-03-11T08:06:43;6.43;;;3.67;;
36247;SDS011;22287;50.824;5.644;2023-03-11T08:09:11;8.97;;;4.50;;
36247;SDS011;22287;50.824;5.644;2023-03-11T08:11:39;6.27;;;3.63;;
36247;SDS011;22287;50.824;5.644;2023-03-11T08:14:06;8.33;;;4.30;;
36247;SDS011;22287;50.824;5.644;2023-03-11T08:16:32;10.02;;;4.10;;
36247;SDS011;22287;50.824;5.644;2023-03-11T08:18:59;5.43;;;3.10;;
36247;SDS011;22287;50.824;5.644;2023-03-11T08:21:27;8.23;;;4.15;;
36247;SDS011;22287;50.824;5.644;2023-03-11T08:26:25;6.68;;;3.45;;
36247;SDS011;22287;50.824;5.644;2023-03-11T08:28:53;8.45;;;3.58;;
36247;SDS011;22287;50.824;5.644;2023-03-11T08:31:21;5.47;;;3.80;;
36247;SDS011;22287;50.824;5.644;2023-03-11T08:33:51;6.73;;;3.53;;
36247;SDS011;22287;50.824;5.644;2023-03-11T08:36:19;8.05;;;3.50;;
36247;SDS011;22287;50.824;5.644;2023-03-11T08:38:46;9.30;;;4.47;;
36247;SDS011;22287;50.824;5.644;2023-03-11T08:41:14;9.45;;;3.60;;
36247;SDS011;22287;50.824;5.644;2023-03-11T08:43:41;9.93;;;3.70;;
36247;SDS011;22287;50.824;5.644;2023-03-11T08:46:09;5.97;;;3.60;;
36247;SDS011;22287;50.824;5.644;2023-03-11T08:48:42;4.97;;;3.28;;
36247;SDS011;22287;50.824;5.644;2023-03-11T08:51:10;8.35;;;3.50;;
36247;SDS011;22287;50.824;5.644;2023-03-11T08:53:38;12.32;;;3.40;;
36247;SDS011;22287;50.824;5.644;2023-03-11T08:56:06;7.03;;;3.50;;
36247;SDS011;22287;50.824;5.644;2023-03-11T08:58:33;9.88;;;4.00;;
36247;SDS011;22287;50.824;5.644;2023-03-11T09:01:00;7.45;;;3.75;;
36247;SDS011;22287;50.824;5.644;2023-03-11T09:03:29;7.30;;;3.45;;
36247;SDS011;22287;50.824;5.644;2023-03-11T09:05:58;14.45;;;3.53;;
36247;SDS011;22287;50.824;5.644;2023-03-11T09:08:26;7.10;;;3.35;;
36247;SDS011;22287;50.824;5.644;2023-03-11T09:10:53;7.40;;;3.33;;
36247;SDS011;22287;50.824;5.644;2023-03-11T09:13:20;5.45;;;3.55;;
36247;SDS011;22287;50.824;5.644;2023-03-11T09:15:47;9.13;;;3.35;;
36247;SDS011;22287;50.824;5.644;2023-03-11T09:18:15;5.25;;;3.53;;
36247;SDS011;22287;50.824;5.644;2023-03-11T09:20:43;9.27;;;2.97;;
36247;SDS011;22287;50.824;5.644;2023-03-11T09:23:11;9.88;;;3.58;;
36247;SDS011;22287;50.824;5.644;2023-03-11T09:25:40;5.65;;;3.15;;
36247;SDS011;22287;50.824;5.644;2023-03-11T09:28:07;6.50;;;2.85;;
36247;SDS011;22287;50.824;5.644;2023-03-11T09:30:34;11.23;;;3.28;;
36247;SDS011;22287;50.824;5.644;2023-03-11T09:33:01;5.45;;;2.58;;
36247;SDS011;22287;50.824;5.644;2023-03-11T09:35:28;8.02;;;2.25;;
36247;SDS011;22287;50.824;5.644;2023-03-11T09:37:55;5.03;;;1.30;;
36247;SDS011;22287;50.824;5.644;2023-03-11T09:40:22;3.88;;;1.95;;
36247;SDS011;22287;50.824;5.644;2023-03-11T09:43:10;5.88;;;1.90;;
36247;SDS011;22287;50.824;5.644;2023-03-11T09:45:55;5.28;;;2.45;;
36247;SDS011;22287;50.824;5.644;2023-03-11T09:48:39;5.53;;;1.30;;
36247;SDS011;22287;50.824;5.644;2023-03-11T09:51:16;4.88;;;1.38;;
36247;SDS011;22287;50.824;5.644;2023-03-11T09:53:53;7.70;;;2.75;;
36247;SDS011;22287;50.824;5.644;2023-03-11T09:56:28;8.80;;;2.22;;
36247;SDS011;22287;50.824;5.644;2023-03-11T09:59:04;5.22;;;1.95;;
36247;SDS011;22287;50.824;5.644;2023-03-11T10:01:35;2.28;;;1.05;;
36247;SDS011;22287;50.824;5.644;2023-03-11T10:06:53;3.50;;;0.73;;
36247;SDS011;22287;50.824;5.644;2023-03-11T10:12:12;1.17;;;0.47;;
36247;SDS011;22287;50.824;5.644;2023-03-11T10:14:47;5.45;;;1.02;;
36247;SDS011;22287;50.824;5.644;2023-03-11T10:23:20;10.93;;;4.93;;
36247;SDS011;22287;50.824;5.644;2023-03-11T10:37:25;3.33;;;1.15;;
36247;SDS011;22287;50.824;5.644;2023-03-11T10:42:57;3.85;;;0.70;;
36247;SDS011;22287;50.824;5.644;2023-03-11T10:45:30;3.55;;;0.80;;
36247;SDS011;22287;50.824;5.644;2023-03-11T10:48:01;4.63;;;1.08;;
36247;SDS011;22287;50.824;5.644;2023-03-11T10:50:33;2.00;;;0.90;;
36247;SDS011;22287;50.824;5.644;2023-03-11T10:53:09;4.15;;;1.10;;
36247;SDS011;22287;50.824;5.644;2023-03-11T10:55:50;3.22;;;1.10;;
36247;SDS011;22287;50.824;5.644;2023-03-11T10:58:20;2.92;;;1.10;;
36247;SDS011;22287;50.824;5.644;2023-03-11T11:01:06;4.95;;;1.20;;
36247;SDS011;22287;50.824;5.644;2023-03-11T11:03:42;3.42;;;1.60;;
36247;SDS011;22287;50.824;5.644;2023-03-11T11:06:17;16.65;;;6.30;;
36247;SDS011;22287;50.824;5.644;2023-03-11T11:08:45;14.20;;;5.80;;
36247;SDS011;22287;50.824;5.644;2023-03-11T11:11:21;15.73;;;5.20;;
36247;SDS011;22287;50.824;5.644;2023-03-11T11:13:56;30.27;;;14.40;;
36247;SDS011;22287;50.824;5.644;2023-03-11T11:16:27;14.45;;;6.55;;
36247;SDS011;22287;50.824;5.644;2023-03-11T11:19:06;7.95;;;2.65;;
36247;SDS011;22287;50.824;5.644;2023-03-11T11:21:47;3.00;;;1.23;;
36247;SDS011;22287;50.824;5.644;2023-03-11T11:24:17;9.30;;;4.43;;
36247;SDS011;22287;50.824;5.644;2023-03-11T11:32:48;18.35;;;8.02;;
36247;SDS011;22287;50.824;5.644;2023-03-11T11:35:19;5.88;;;2.50;;
36247;SDS011;22287;50.824;5.644;2023-03-11T11:37:51;7.45;;;2.72;;
36247;SDS011;22287;50.824;5.644;2023-03-11T11:40:28;2.97;;;1.27;;
36247;SDS011;22287;50.824;5.644;2023-03-11T11:43:03;4.13;;;1.30;;
36247;SDS011;22287;50.824;5.644;2023-03-11T11:46:17;5.93;;;2.15;;
36247;SDS011;22287;50.824;5.644;2023-03-11T11:57:18;5.25;;;1.90;;
36247;SDS011;22287;50.824;5.644;2023-03-11T11:59:47;5.65;;;1.98;;
36247;SDS011;22287;50.824;5.644;2023-03-11T12:05:16;6.25;;;2.60;;
36247;SDS011;22287;50.824;5.644;2023-03-11T12:10:48;4.95;;;0.85;;
36247;SDS011;22287;50.824;5.644;2023-03-11T12:15:59;4.50;;;1.50;;
36247;SDS011;22287;50.824;5.644;2023-03-11T12:23:59;5.40;;;0.98;;
36247;SDS011;22287;50.824;5.644;2023-03-11T12:26:33;3.75;;;0.93;;
36247;SDS011;22287;50.824;5.644;2023-03-11T12:29:06;4.05;;;0.90;;
36247;SDS011;22287;50.824;5.644;2023-03-11T12:31:41;1.92;;;0.98;;
36247;SDS011;22287;50.824;5.644;2023-03-11T12:34:10;3.53;;;0.90;;
36247;SDS011;22287;50.824;5.644;2023-03-11T12:36:41;4.83;;;1.00;;
36247;SDS011;22287;50.824;5.644;2023-03-11T12:39:23;2.13;;;1.10;;
36247;SDS011;22287;50.824;5.644;2023-03-11T12:44:37;3.85;;;1.13;;
36247;SDS011;22287;50.824;5.644;2023-03-11T12:49:36;1.73;;;0.90;;
36247;SDS011;22287;50.824;5.644;2023-03-11T12:54:47;4.80;;;0.70;;
36247;SDS011;22287;50.824;5.644;2023-03-11T12:57:36;4.05;;;0.68;;
36247;SDS011;22287;50.824;5.644;2023-03-11T13:08:19;8.32;;;1.33;;
36247;SDS011;22287;50.824;5.644;2023-03-11T13:10:52;3.00;;;0.93;;
36247;SDS011;22287;50.824;5.644;2023-03-11T13:18:40;4.55;;;1.00;;
36247;SDS011;22287;50.824;5.644;2023-03-11T13:38:08;4.75;;;1.33;;
36247;SDS011;22287;50.824;5.644;2023-03-11T13:40:51;2.50;;;1.05;;
36247;SDS011;22287;50.824;5.644;2023-03-11T13:43:20;4.93;;;1.75;;
36247;SDS011;22287;50.824;5.644;2023-03-11T13:48:46;4.22;;;1.55;;
36247;SDS011;22287;50.824;5.644;2023-03-11T13:53:50;2.72;;;0.70;;
36247;SDS011;22287;50.824;5.644;2023-03-11T13:56:17;4.55;;;0.80;;
36247;SDS011;22287;50.824;5.644;2023-03-11T13:58:49;4.55;;;0.95;;
36247;SDS011;22287;50.824;5.644;2023-03-11T14:01:16;2.88;;;0.82;;
36247;SDS011;22287;50.824;5.644;2023-03-11T14:03:45;2.28;;;0.70;;
36247;SDS011;22287;50.824;5.644;2023-03-11T14:06:32;3.15;;;0.75;;
36247;SDS011;22287;50.824;5.644;2023-03-11T14:08:59;5.20;;;1.75;;
36247;SDS011;22287;50.824;5.644;2023-03-11T14:11:29;2.15;;;0.98;;
36247;SDS011;22287;50.824;5.644;2023-03-11T14:13:55;2.30;;;0.80;;
36247;SDS011;22287;50.824;5.644;2023-03-11T14:16:27;2.63;;;0.82;;
36247;SDS011;22287;50.824;5.644;2023-03-11T14:21:30;3.47;;;1.00;;
36247;SDS011;22287;50.824;5.644;2023-03-11T14:23:59;7.90;;;3.10;;
36247;SDS011;22287;50.824;5.644;2023-03-11T14:26:29;1.88;;;0.90;;
36247;SDS011;22287;50.824;5.644;2023-03-11T14:29:06;2.92;;;0.82;;
36247;SDS011;22287;50.824;5.644;2023-03-11T14:31:39;4.22;;;1.20;;
36247;SDS011;22287;50.824;5.644;2023-03-11T14:36:39;3.10;;;0.70;;
36247;SDS011;22287;50.824;5.644;2023-03-11T14:44:33;0.80;;;0.40;;
36247;SDS011;22287;50.824;5.644;2023-03-11T14:47:06;2.10;;;0.70;;
36247;SDS011;22287;50.824;5.644;2023-03-11T14:49:34;2.55;;;0.60;;
36247;SDS011;22287;50.824;5.644;2023-03-11T14:52:04;7.32;;;1.88;;
36247;SDS011;22287;50.824;5.644;2023-03-11T14:54:39;2.28;;;1.10;;
36247;SDS011;22287;50.824;5.644;2023-03-11T14:57:15;1.75;;;0.60;;
36247;SDS011;22287;50.824;5.644;2023-03-11T14:59:48;3.10;;;0.90;;
36247;SDS011;22287;50.824;5.644;2023-03-11T15:05:44;3.17;;;0.60;;
36247;SDS011;22287;50.824;5.644;2023-03-11T15:08:21;1.65;;;0.70;;
36247;SDS011;22287;50.824;5.644;2023-03-11T15:11:01;4.63;;;0.85;;
36247;SDS011;22287;50.824;5.644;2023-03-11T15:13:39;3.30;;;0.73;;
36247;SDS011;22287;50.824;5.644;2023-03-11T15:18:58;2.53;;;0.57;;
36247;SDS011;22287;50.824;5.644;2023-03-11T15:21:49;2.67;;;0.60;;
36247;SDS011;22287;50.824;5.644;2023-03-11T15:24:20;2.33;;;0.40;;
36247;SDS011;22287;50.824;5.644;2023-03-11T15:26:55;2.92;;;0.80;;
36247;SDS011;22287;50.824;5.644;2023-03-11T15:29:24;1.92;;;0.77;;
36247;SDS011;22287;50.824;5.644;2023-03-11T15:31:52;5.78;;;0.70;;
36247;SDS011;22287;50.824;5.644;2023-03-11T15:34:26;2.95;;;0.85;;
36247;SDS011;22287;50.824;5.644;2023-03-11T15:42:00;4.00;;;0.65;;
36247;SDS011;22287;50.824;5.644;2023-03-11T15:44:47;2.67;;;1.05;;
36247;SDS011;22287;50.824;5.644;2023-03-11T15:47:16;3.90;;;1.27;;
36247;SDS011;22287;50.824;5.644;2023-03-11T15:49:45;5.60;;;0.70;;
36247;SDS011;22287;50.824;5.644;2023-03-11T15:52:12;3.28;;;1.00;;
36247;SDS011;22287;50.824;5.644;2023-03-11T15:54:39;4.22;;;0.60;;
36247;SDS011;22287;50.824;5.644;2023-03-11T15:57:07;2.63;;;1.27;;
36247;SDS011;22287;50.824;5.644;2023-03-11T15:59:38;4.30;;;0.70;;
36247;SDS011;22287;50.824;5.644;2023-03-11T16:02:11;2.75;;;1.10;;
36247;SDS011;22287;50.824;5.644;2023-03-11T16:04:48;2.13;;;0.77;;
36247;SDS011;22287;50.824;5.644;2023-03-11T16:07:16;1.85;;;0.80;;
36247;SDS011;22287;50.824;5.644;2023-03-11T16:09:51;3.47;;;1.50;;
36247;SDS011;22287;50.824;5.644;2023-03-11T16:12:19;1.35;;;0.43;;
36247;SDS011;22287;50.824;5.644;2023-03-11T16:14:49;6.23;;;0.87;;
36247;SDS011;22287;50.824;5.644;2023-03-11T16:17:15;1.65;;;0.80;;
36247;SDS011;22287;50.824;5.644;2023-03-11T16:19:44;1.60;;;1.00;;
36247;SDS011;22287;50.824;5.644;2023-03-11T16:22:15;1.98;;;0.63;;
36247;SDS011;22287;50.824;5.644;2023-03-11T16:24:45;1.43;;;0.40;;
36247;SDS011;22287;50.824;5.644;2023-03-11T16:27:15;2.80;;;0.70;;
36247;SDS011;22287;50.824;5.644;2023-03-11T16:29:43;2.53;;;0.85;;
36247;SDS011;22287;50.824;5.644;2023-03-11T16:32:11;3.65;;;1.00;;
36247;SDS011;22287;50.824;5.644;2023-03-11T16:34:39;3.42;;;1.02;;
36247;SDS011;22287;50.824;5.644;2023-03-11T16:37:06;2.47;;;0.75;;
36247;SDS011;22287;50.824;5.644;2023-03-11T16:39:33;5.07;;;1.00;;
36247;SDS011;22287;50.824;5.644;2023-03-11T16:42:00;3.63;;;0.60;;
36247;SDS011;22287;50.824;5.644;2023-03-11T16:44:27;5.03;;;0.63;;
36247;SDS011;22287;50.824;5.644;2023-03-11T16:46:54;6.50;;;0.90;;
36247;SDS011;22287;50.824;5.644;2023-03-11T16:49:21;2.25;;;0.60;;
36247;SDS011;22287;50.824;5.644;2023-03-11T16:51:48;2.42;;;0.43;;
36247;SDS011;22287;50.824;5.644;2023-03-11T16:54:14;5.80;;;1.40;;
36247;SDS011;22287;50.824;5.644;2023-03-11T16:56:41;5.38;;;1.13;;
36247;SDS011;22287;50.824;5.644;2023-03-11T16:59:08;1.75;;;0.60;;
36247;SDS011;22287;50.824;5.644;2023-03-11T17:01:35;3.28;;;0.80;;
36247;SDS011;22287;50.824;5.644;2023-03-11T17:04:06;1.75;;;0.50;;
36247;SDS011;22287;50.824;5.644;2023-03-11T17:06:33;2.15;;;0.60;;
36247;SDS011;22287;50.824;5.644;2023-03-11T17:09:00;2.80;;;0.52;;
36247;SDS011;22287;50.824;5.644;2023-03-11T17:11:27;2.03;;;0.50;;
36247;SDS011;22287;50.824;5.644;2023-03-11T17:13:56;7.60;;;1.70;;
36247;SDS011;22287;50.824;5.644;2023-03-11T17:16:40;6.70;;;3.58;;
36247;SDS011;22287;50.824;5.644;2023-03-11T17:19:07;4.70;;;1.35;;
36247;SDS011;22287;50.824;5.644;2023-03-11T17:21:34;1.55;;;0.80;;